createdAt,value
2022-11-05T00:02:09.230Z,45.45
2022-11-05T00:04:54.830Z,45.46
2022-11-05T00:07:46.201Z,45.33
2022-11-05T00:10:22.566Z,45.62
2022-11-05T00:13:08.300Z,45.52
2022-11-05T00:15:53.991Z,45.56
2022-11-05T00:18:20.897Z,45.62
2022-11-05T00:20:47.715Z,45.92
2022-11-05T00:23:33.324Z,45.97
2022-11-05T00:26:00.902Z,45.96
2022-11-05T00:28:28.659Z,45.77
2022-11-05T00:31:00.574Z,45.67
2022-11-05T00:33:27.478Z,45.92
2022-11-05T00:35:54.304Z,45.66
2022-11-05T00:38:21.175Z,45.96
2022-11-05T00:40:48.136Z,46.00
2022-11-05T00:43:33.795Z,45.94
2022-11-05T00:46:00.646Z,45.92
2022-11-05T00:48:45.973Z,45.68
2022-11-05T00:51:12.843Z,46.04
2022-11-05T00:53:39.682Z,45.81
2022-11-05T00:56:06.657Z,45.83
2022-11-05T00:58:33.483Z,45.77
2022-11-05T01:01:00.766Z,45.68
2022-11-05T01:03:33.043Z,45.92
2022-11-05T01:06:12.907Z,45.84
2022-11-05T01:08:39.971Z,46.12
2022-11-05T01:11:11.762Z,45.90
2022-11-05T01:13:38.828Z,45.90
2022-11-05T01:16:07.716Z,45.92
2022-11-05T01:18:36.166Z,45.71
2022-11-05T01:21:13.227Z,45.92
2022-11-05T01:23:40.268Z,45.87
2022-11-05T01:26:07.098Z,45.83
2022-11-05T01:28:34.006Z,45.92
2022-11-05T01:31:00.891Z,45.94
2022-11-05T01:33:27.727Z,45.98
2022-11-05T01:35:54.578Z,45.93
2022-11-05T01:38:21.412Z,46.20
2022-11-05T01:40:48.331Z,45.92
2022-11-05T01:43:19.822Z,46.11
2022-11-05T01:45:51.489Z,46.20
2022-11-05T01:48:26.451Z,46.14
2022-11-05T01:50:53.079Z,46.05
2022-11-05T01:53:24.318Z,46.23
2022-11-05T01:55:56.157Z,46.17
2022-11-05T01:58:24.218Z,46.38
2022-11-05T02:00:51.052Z,46.18
2022-11-05T02:03:17.938Z,46.25
2022-11-05T02:05:44.985Z,46.28
2022-11-05T02:08:16.765Z,46.40
2022-11-05T02:10:43.595Z,45.99
2022-11-05T02:13:10.655Z,46.29
2022-11-05T02:16:18.544Z,46.76
2022-11-05T02:19:08.317Z,46.42
2022-11-05T02:22:05.782Z,46.38
2022-11-05T02:24:36.785Z,46.28
2022-11-05T02:27:22.403Z,46.32
2022-11-05T02:29:58.414Z,46.46
2022-11-05T02:32:53.478Z,46.29
2022-11-05T02:35:23.235Z,46.40
2022-11-05T02:37:52.590Z,46.28
2022-11-05T02:40:52.885Z,46.41
2022-11-05T02:43:51.313Z,46.34
2022-11-05T02:46:54.867Z,46.36
2022-11-05T02:49:21.657Z,46.63
2022-11-05T02:51:53.169Z,46.52
2022-11-05T02:54:45.882Z,46.47
2022-11-05T02:57:12.771Z,46.40
2022-11-05T02:59:39.630Z,46.63
2022-11-05T03:02:06.682Z,46.55
2022-11-05T03:04:33.653Z,46.50
2022-11-05T03:07:28.613Z,46.47
2022-11-05T03:10:22.853Z,46.62
2022-11-05T03:13:07.522Z,46.60
2022-11-05T03:15:53.460Z,46.78
2022-11-05T03:18:35.451Z,46.58
2022-11-05T03:21:35.874Z,46.83
2022-11-05T03:24:06.209Z,47.00
2022-11-05T03:26:39.520Z,46.87
2022-11-05T03:29:09.682Z,46.69
2022-11-05T03:31:36.761Z,46.68
2022-11-05T03:34:04.476Z,46.96
2022-11-05T03:36:33.843Z,46.97
2022-11-05T03:39:02.653Z,46.62
2022-11-05T03:41:29.488Z,47.03
2022-11-05T03:43:57.502Z,46.66
2022-11-05T03:46:32.042Z,47.02
2022-11-05T03:48:59.316Z,46.87
2022-11-05T03:51:38.939Z,46.99
2022-11-05T03:54:06.234Z,46.94
2022-11-05T03:56:38.132Z,47.17
2022-11-05T03:59:05.216Z,46.84
2022-11-05T04:01:32.130Z,47.00
2022-11-05T04:03:59.102Z,47.10
2022-11-05T04:06:44.881Z,47.04
2022-11-05T04:09:30.548Z,46.82
2022-11-05T04:12:16.273Z,47.23
2022-11-05T04:14:43.176Z,47.08
2022-11-05T04:17:10.094Z,47.13
2022-11-05T04:19:59.764Z,47.15
2022-11-05T04:22:46.381Z,47.36
2022-11-05T04:25:13.383Z,47.09
2022-11-05T04:27:40.264Z,47.16
2022-11-05T04:30:20.157Z,47.44
2022-11-05T04:33:05.991Z,47.23
2022-11-05T04:35:36.529Z,47.07
2022-11-05T04:38:05.157Z,47.47
2022-11-05T04:40:32.179Z,47.32
2022-11-05T04:42:59.135Z,47.02
2022-11-05T04:45:27.290Z,47.28
2022-11-05T04:47:54.201Z,47.11
2022-11-05T04:50:21.246Z,47.41
2022-11-05T04:52:48.166Z,47.47
2022-11-05T04:55:15.164Z,47.27
2022-11-05T04:57:42.061Z,47.31
2022-11-05T05:00:09.499Z,47.45
2022-11-05T05:02:36.449Z,47.54
2022-11-05T05:05:03.415Z,47.46
2022-11-05T05:07:30.276Z,47.56
2022-11-05T05:09:57.170Z,47.70
2022-11-05T05:12:24.053Z,47.75
2022-11-05T05:14:50.912Z,47.64
2022-11-05T05:17:17.789Z,47.73
2022-11-05T05:20:03.137Z,47.87
2022-11-05T05:22:30.051Z,47.88
2022-11-05T05:24:56.869Z,48.22
2022-11-05T05:27:24.189Z,47.87
2022-11-05T05:29:51.065Z,47.90
2022-11-05T05:32:17.908Z,48.05
2022-11-05T05:34:44.775Z,47.79
2022-11-05T05:37:11.656Z,47.94
2022-11-05T05:39:38.480Z,47.77
2022-11-05T05:42:05.403Z,47.77
2022-11-05T05:44:32.209Z,47.65
2022-11-05T05:46:59.162Z,47.83
2022-11-05T05:49:26.013Z,47.92
2022-11-05T05:51:52.878Z,47.79
2022-11-05T05:54:19.741Z,47.58
2022-11-05T05:56:46.593Z,47.69
2022-11-05T05:59:13.409Z,47.81
2022-11-05T06:01:40.371Z,47.83
2022-11-05T06:04:07.347Z,48.04
2022-11-05T06:06:34.204Z,48.13
2022-11-05T06:09:01.119Z,47.83
2022-11-05T06:11:28.069Z,48.06
2022-11-05T06:13:54.879Z,47.99
2022-11-05T06:16:21.694Z,47.90
2022-11-05T06:18:48.846Z,47.86
2022-11-05T06:21:17.031Z,48.16
2022-11-05T06:23:44.682Z,47.90
2022-11-05T06:26:13.415Z,48.20
2022-11-05T06:28:41.989Z,47.76
2022-11-05T06:31:12.327Z,47.90
2022-11-05T06:33:39.369Z,48.05
2022-11-05T06:36:06.988Z,48.27
2022-11-05T06:38:35.037Z,48.07
2022-11-05T06:41:07.244Z,48.33
2022-11-05T06:43:36.853Z,48.10
2022-11-05T06:46:03.837Z,48.22
2022-11-05T06:48:30.818Z,48.44
2022-11-05T06:50:57.679Z,48.59
2022-11-05T06:53:24.549Z,49.45
2022-11-05T06:55:51.379Z,49.08
2022-11-05T06:58:18.209Z,48.25
2022-11-05T07:00:45.428Z,48.24
2022-11-05T07:03:12.941Z,48.27
2022-11-05T07:05:45.465Z,48.41
2022-11-05T07:08:12.360Z,48.38
2022-11-05T07:10:39.247Z,48.24
2022-11-05T07:13:08.445Z,48.24
2022-11-05T07:15:36.694Z,48.41
2022-11-05T07:18:04.309Z,48.29
2022-11-05T07:20:34.327Z,48.15
2022-11-05T07:23:05.992Z,48.00
2022-11-05T07:25:33.018Z,48.24
2022-11-05T07:27:59.973Z,48.18
2022-11-05T07:30:26.954Z,48.36
2022-11-05T07:32:53.940Z,48.28
2022-11-05T07:35:20.791Z,48.33
2022-11-05T07:37:48.874Z,48.22
2022-11-05T07:40:16.506Z,48.34
2022-11-05T07:42:44.065Z,48.27
2022-11-05T07:45:11.604Z,48.37
2022-11-05T07:47:59.574Z,48.29
2022-11-05T07:50:30.927Z,48.24
2022-11-05T07:53:05.450Z,48.19
2022-11-05T07:55:32.438Z,48.69
2022-11-05T07:57:59.531Z,49.14
2022-11-05T08:00:26.777Z,49.23
2022-11-05T08:03:08.741Z,49.06
2022-11-05T08:05:37.832Z,49.35
2022-11-05T08:08:05.085Z,49.51
2022-11-05T08:10:32.532Z,49.49
2022-11-05T08:12:59.500Z,49.37
2022-11-05T08:15:26.339Z,49.37
2022-11-05T08:18:14.228Z,49.11
2022-11-05T08:20:41.608Z,49.41
2022-11-05T08:23:08.984Z,49.36
2022-11-05T08:25:36.096Z,49.37
2022-11-05T08:28:15.619Z,49.61
2022-11-05T08:30:42.587Z,49.64
2022-11-05T08:33:11.626Z,49.68
2022-11-05T08:35:38.892Z,49.57
2022-11-05T08:38:06.859Z,49.67
2022-11-05T08:40:34.771Z,49.31
2022-11-05T08:43:03.323Z,49.55
2022-11-05T08:45:30.207Z,48.96
2022-11-05T08:48:05.336Z,48.51
2022-11-05T08:50:32.566Z,48.60
2022-11-05T08:52:59.506Z,48.16
2022-11-05T08:55:26.351Z,48.10
2022-11-05T08:57:57.405Z,48.09
2022-11-05T09:00:24.782Z,48.08
2022-11-05T09:02:51.695Z,48.33
2022-11-05T09:05:18.722Z,48.24
2022-11-05T09:07:46.727Z,48.13
2022-11-05T09:10:13.558Z,48.14
2022-11-05T09:12:40.462Z,48.26
2022-11-05T09:15:07.771Z,48.08
2022-11-05T09:17:34.646Z,47.96
2022-11-05T09:20:02.269Z,47.98
2022-11-05T09:22:29.229Z,48.10
2022-11-05T09:24:56.038Z,48.00
2022-11-05T09:27:22.950Z,47.89
2022-11-05T09:29:49.751Z,47.88
2022-11-05T09:32:19.182Z,48.11
2022-11-05T09:34:46.084Z,48.14
2022-11-05T09:37:12.979Z,48.10
2022-11-05T09:39:39.798Z,47.93
2022-11-05T09:42:08.213Z,48.03
2022-11-05T09:45:04.047Z,48.33
2022-11-05T09:47:43.983Z,48.58
2022-11-05T09:50:24.487Z,49.03
2022-11-05T09:52:51.483Z,48.59
2022-11-05T09:55:26.435Z,49.00
2022-11-05T09:57:56.892Z,48.86
2022-11-05T10:00:23.899Z,49.00
2022-11-05T10:03:03.793Z,48.89
2022-11-05T10:05:30.688Z,48.93
2022-11-05T10:08:06.333Z,48.81
2022-11-05T10:11:00.916Z,49.00
2022-11-05T10:13:35.401Z,49.21
2022-11-05T10:16:28.406Z,49.14
2022-11-05T10:18:59.497Z,49.17
2022-11-05T10:21:51.417Z,49.17
2022-11-05T10:24:15.712Z,49.05
2022-11-05T10:26:43.470Z,49.05
2022-11-05T10:29:12.432Z,49.13
2022-11-05T10:31:39.349Z,48.90
2022-11-05T10:34:07.004Z,49.07
2022-11-05T10:36:37.268Z,49.09
2022-11-05T10:39:10.682Z,49.08
2022-11-05T10:41:59.108Z,49.10
2022-11-05T10:44:31.833Z,49.29
2022-11-05T10:47:10.748Z,49.29
2022-11-05T10:49:54.164Z,49.51
2022-11-05T10:52:29.257Z,49.27
2022-11-05T10:54:58.824Z,49.20
2022-11-05T10:57:34.723Z,49.25
2022-11-05T11:00:16.770Z,49.34
2022-11-05T11:02:46.287Z,49.36
2022-11-05T11:05:21.656Z,49.56
2022-11-05T11:08:23.335Z,49.45
2022-11-05T11:10:53.849Z,49.51
2022-11-05T11:13:25.847Z,49.49
2022-11-05T11:15:52.809Z,49.21
2022-11-05T11:18:32.478Z,49.33
2022-11-05T11:21:12.022Z,49.74
2022-11-05T11:23:39.922Z,50.35
2022-11-05T11:26:06.850Z,50.53
2022-11-05T11:28:37.264Z,50.38
2022-11-05T11:31:15.894Z,50.74
2022-11-05T11:33:44.833Z,50.58
2022-11-05T11:36:11.850Z,50.74
2022-11-05T11:38:38.705Z,50.74
2022-11-05T11:41:11.540Z,50.52
2022-11-05T11:43:40.184Z,50.88
2022-11-05T11:46:15.260Z,50.69
2022-11-05T11:48:43.320Z,50.67
2022-11-05T11:51:30.375Z,50.68
2022-11-05T11:54:00.731Z,50.97
2022-11-05T11:56:27.834Z,50.76
2022-11-05T11:58:55.835Z,50.75
2022-11-05T12:01:40.810Z,50.57
2022-11-05T12:04:07.557Z,50.50
2022-11-05T12:06:37.189Z,50.93
2022-11-05T12:09:34.669Z,50.81
2022-11-05T12:12:13.066Z,51.06
2022-11-05T12:14:46.441Z,51.11
2022-11-05T12:17:23.802Z,50.94
2022-11-05T12:19:56.763Z,50.75
2022-11-05T12:22:26.702Z,51.25
2022-11-05T12:25:30.812Z,51.16
2022-11-05T12:28:28.687Z,50.67
2022-11-05T12:31:34.395Z,50.78
2022-11-05T12:34:19.415Z,50.71
2022-11-05T12:37:12.115Z,49.49
2022-11-05T12:39:48.217Z,49.33
2022-11-05T12:42:29.908Z,49.40
2022-11-05T12:45:44.352Z,49.17
2022-11-05T12:48:42.938Z,49.35
2022-11-05T12:51:26.848Z,49.20
2022-11-05T12:53:59.247Z,49.21
2022-11-05T12:56:35.016Z,48.98
2022-11-05T12:59:17.194Z,49.13
2022-11-05T13:01:46.774Z,49.43
2022-11-05T13:04:25.387Z,49.46
2022-11-05T13:06:53.076Z,49.19
2022-11-05T13:09:41.703Z,49.03
2022-11-05T13:12:12.009Z,49.30
2022-11-05T13:14:48.652Z,49.08
2022-11-05T13:17:43.156Z,49.07
2022-11-05T13:20:17.559Z,49.25
2022-11-05T13:22:45.404Z,49.29
2022-11-05T13:25:12.145Z,49.38
2022-11-05T13:28:15.821Z,49.14
2022-11-05T13:30:44.232Z,49.06
2022-11-05T13:33:20.483Z,49.27
2022-11-05T13:36:28.290Z,48.88
2022-11-05T13:39:32.351Z,48.88
2022-11-05T13:42:17.623Z,48.87
2022-11-05T13:45:04.557Z,49.03
2022-11-05T13:47:52.869Z,48.73
2022-11-05T13:50:29.686Z,48.92
2022-11-05T13:53:02.395Z,48.98
2022-11-05T13:55:44.143Z,48.90
2022-11-05T13:58:29.886Z,48.75
2022-11-05T14:01:00.842Z,48.88
2022-11-05T14:03:27.822Z,48.87
2022-11-05T14:06:20.764Z,48.94
2022-11-05T14:08:47.635Z,49.21
2022-11-05T14:11:34.572Z,49.06
2022-11-05T14:14:06.832Z,49.07
2022-11-05T14:16:52.809Z,49.41
2022-11-05T14:19:19.571Z,49.49
2022-11-05T14:22:10.561Z,49.09
2022-11-05T14:24:37.363Z,49.40
2022-11-05T14:27:04.085Z,49.54
2022-11-05T14:29:39.865Z,49.39
2022-11-05T14:32:21.603Z,49.04
2022-11-05T14:34:48.432Z,49.40
2022-11-05T14:37:22.639Z,49.34
2022-11-05T14:39:49.482Z,49.54
2022-11-05T14:42:29.100Z,49.62
2022-11-05T14:45:03.996Z,49.29
2022-11-05T14:47:39.229Z,49.43
2022-11-05T14:50:32.467Z,49.44
2022-11-05T14:53:02.731Z,49.49
2022-11-05T14:55:33.892Z,49.63
2022-11-05T14:58:02.595Z,49.74
2022-11-05T15:00:29.323Z,49.49
2022-11-05T15:02:57.853Z,49.78
2022-11-05T15:05:38.734Z,49.66
2022-11-05T15:08:26.770Z,49.55
2022-11-05T15:10:54.046Z,49.40
2022-11-05T15:13:30.200Z,49.48
2022-11-05T15:15:56.977Z,49.56
2022-11-05T15:18:30.577Z,49.71
2022-11-05T15:20:59.037Z,49.64
2022-11-05T15:23:26.931Z,49.45
2022-11-05T15:26:02.832Z,49.72
2022-11-05T15:28:37.103Z,49.75
2022-11-05T15:31:12.964Z,49.78
2022-11-05T15:33:42.317Z,49.59
2022-11-05T15:36:18.308Z,49.82
2022-11-05T15:39:01.980Z,49.45
2022-11-05T15:41:34.424Z,49.67
2022-11-05T15:44:02.765Z,49.75
2022-11-05T15:46:29.952Z,49.55
2022-11-05T15:49:07.058Z,49.62
2022-11-05T15:51:33.927Z,49.56
2022-11-05T15:54:28.557Z,49.84
2022-11-05T15:56:52.092Z,49.73
2022-11-05T15:59:22.940Z,49.64
2022-11-05T16:01:56.429Z,49.65
2022-11-05T16:04:25.768Z,49.75
2022-11-05T16:06:54.176Z,49.68
2022-11-05T16:09:29.008Z,49.57
2022-11-05T16:12:20.371Z,49.81
2022-11-05T16:15:00.409Z,49.46
2022-11-05T16:17:33.423Z,49.62
2022-11-05T16:20:00.448Z,49.26
2022-11-05T16:22:46.918Z,49.29
2022-11-05T16:25:23.419Z,49.22
2022-11-05T16:27:50.265Z,49.55
2022-11-05T16:30:18.255Z,49.69
2022-11-05T16:32:45.154Z,49.73
2022-11-05T16:35:27.928Z,49.39
2022-11-05T16:37:54.791Z,49.85
2022-11-05T16:40:23.773Z,49.77
2022-11-05T16:42:52.052Z,49.76
2022-11-05T16:45:20.792Z,49.89
2022-11-05T16:47:47.741Z,49.91
2022-11-05T16:50:30.589Z,50.12
2022-11-05T16:52:57.420Z,49.92
2022-11-05T16:55:24.259Z,49.46
2022-11-05T16:57:54.817Z,49.65
2022-11-05T17:00:22.107Z,49.82
2022-11-05T17:02:49.337Z,49.98
2022-11-05T17:05:36.655Z,49.64
2022-11-05T17:08:03.590Z,49.89
2022-11-05T17:10:30.777Z,49.84
2022-11-05T17:12:57.642Z,49.77
2022-11-05T17:15:30.968Z,49.81
2022-11-05T17:17:58.328Z,49.78
2022-11-05T17:20:40.400Z,50.09
2022-11-05T17:23:16.174Z,50.06
2022-11-05T17:25:44.463Z,50.16
2022-11-05T17:28:11.683Z,50.00
2022-11-05T17:30:41.382Z,50.00
2022-11-05T17:33:10.537Z,49.83
2022-11-05T17:35:39.576Z,49.84
2022-11-05T17:38:06.415Z,50.31
2022-11-05T17:40:34.000Z,49.98
2022-11-05T17:43:00.893Z,50.37
2022-11-05T17:45:27.720Z,50.13
2022-11-05T17:47:54.634Z,50.23
2022-11-05T17:50:21.521Z,50.08
2022-11-05T17:52:48.353Z,50.03
2022-11-05T17:55:18.192Z,49.99
2022-11-05T17:57:45.199Z,49.81
2022-11-05T18:00:12.983Z,50.03
2022-11-05T18:02:39.900Z,49.85
2022-11-05T18:05:07.217Z,49.79
2022-11-05T18:07:34.260Z,50.04
2022-11-05T18:10:01.130Z,50.12
2022-11-05T18:12:28.041Z,49.82
2022-11-05T18:14:54.859Z,50.73
2022-11-05T18:17:21.760Z,50.14
2022-11-05T18:19:48.595Z,50.08
2022-11-05T18:22:16.329Z,49.77
2022-11-05T18:24:43.153Z,50.02
2022-11-05T18:27:10.158Z,49.76
2022-11-05T18:29:37.151Z,49.84
2022-11-05T18:32:04.119Z,49.95
2022-11-05T18:34:30.954Z,49.95
2022-11-05T18:36:57.863Z,49.87
2022-11-05T18:39:24.853Z,49.73
2022-11-05T18:41:51.701Z,49.76
2022-11-05T18:44:22.742Z,49.99
2022-11-05T18:46:58.000Z,50.13
2022-11-05T18:49:26.193Z,50.30
2022-11-05T18:51:53.030Z,50.38
2022-11-05T18:54:20.023Z,49.91
2022-11-05T18:56:47.025Z,49.78
2022-11-05T18:59:35.863Z,49.68
2022-11-05T19:02:01.899Z,49.63
2022-11-05T19:04:30.549Z,49.85
2022-11-05T19:07:03.123Z,49.57
2022-11-05T19:09:31.817Z,49.77
2022-11-05T19:11:58.764Z,49.61
2022-11-05T19:14:25.589Z,49.64
2022-11-05T19:16:52.451Z,50.11
2022-11-05T19:19:19.360Z,50.05
2022-11-05T19:21:46.187Z,49.88
2022-11-05T19:24:20.100Z,50.20
2022-11-05T19:26:47.536Z,49.79
2022-11-05T19:29:15.007Z,49.85
2022-11-05T19:31:42.035Z,49.92
2022-11-05T19:34:08.957Z,50.06
2022-11-05T19:36:35.806Z,50.24
2022-11-05T19:39:06.364Z,50.05
2022-11-05T19:41:33.333Z,49.75
2022-11-05T19:44:01.735Z,50.04
2022-11-05T19:46:29.249Z,49.79
2022-11-05T19:48:56.284Z,49.68
2022-11-05T19:51:24.521Z,49.64
2022-11-05T19:53:52.841Z,49.89
2022-11-05T19:56:21.924Z,49.83
2022-11-05T19:58:49.118Z,49.61
2022-11-05T20:01:16.767Z,49.85
2022-11-05T20:03:43.852Z,49.80
2022-11-05T20:06:15.353Z,49.69
2022-11-05T20:09:06.697Z,49.59
2022-11-05T20:11:29.582Z,49.94
2022-11-05T20:13:56.762Z,49.49
2022-11-05T20:16:25.534Z,49.71
2022-11-05T20:18:52.480Z,49.84
2022-11-05T20:21:19.403Z,49.53
2022-11-05T20:23:46.331Z,49.87
2022-11-05T20:26:13.489Z,49.84
2022-11-05T20:28:40.607Z,49.77
2022-11-05T20:31:12.057Z,49.93
2022-11-05T20:33:39.089Z,49.92
2022-11-05T20:36:07.486Z,49.98
2022-11-05T20:38:34.305Z,49.58
2022-11-05T20:41:05.225Z,49.65
2022-11-05T20:43:32.034Z,49.80
2022-11-05T20:45:58.859Z,49.47
2022-11-05T20:48:25.740Z,49.64
2022-11-05T20:50:52.967Z,49.77
2022-11-05T20:53:19.778Z,49.91
2022-11-05T20:55:47.433Z,49.67
2022-11-05T20:58:15.429Z,49.51
2022-11-05T21:00:50.866Z,49.77
2022-11-05T21:03:18.196Z,49.72
2022-11-05T21:05:48.773Z,49.45
2022-11-05T21:08:15.901Z,49.40
2022-11-05T21:10:47.172Z,49.56
2022-11-05T21:13:18.314Z,49.41
2022-11-05T21:15:52.606Z,49.46
2022-11-05T21:18:22.172Z,49.73
2022-11-05T21:20:49.123Z,49.48
2022-11-05T21:23:16.141Z,49.86
2022-11-05T21:25:43.440Z,49.41
2022-11-05T21:28:11.257Z,49.76
2022-11-05T21:30:41.529Z,49.72
2022-11-05T21:33:08.676Z,49.82
2022-11-05T21:35:39.700Z,49.70
2022-11-05T21:38:06.847Z,49.81
2022-11-05T21:40:33.697Z,49.47
2022-11-05T21:43:00.523Z,49.44
2022-11-05T21:45:27.351Z,49.54
2022-11-05T21:47:54.256Z,49.82
2022-11-05T21:50:41.091Z,49.66
2022-11-05T21:53:34.266Z,49.63
2022-11-05T21:56:19.606Z,49.79
2022-11-05T21:59:05.286Z,49.74
2022-11-05T22:01:32.210Z,50.11
2022-11-05T22:04:03.129Z,49.66
2022-11-05T22:06:33.075Z,49.89
2022-11-05T22:09:00.018Z,49.87
2022-11-05T22:11:26.841Z,50.01
2022-11-05T22:13:53.799Z,49.65
2022-11-05T22:16:20.652Z,49.81
2022-11-05T22:18:47.505Z,49.56
2022-11-05T22:21:18.277Z,49.76
2022-11-05T22:23:45.113Z,50.14
2022-11-05T22:26:11.932Z,50.40
2022-11-05T22:28:38.771Z,50.32
2022-11-05T22:31:12.628Z,50.30
2022-11-05T22:33:39.541Z,50.67
2022-11-05T22:36:06.791Z,50.60
2022-11-05T22:38:33.616Z,50.86
2022-11-05T22:41:00.575Z,50.70
2022-11-05T22:43:27.389Z,50.84
2022-11-05T22:45:54.265Z,50.71
2022-11-05T22:48:21.286Z,50.83
2022-11-05T22:50:48.097Z,51.00
2022-11-05T22:53:14.905Z,51.03
2022-11-05T22:55:41.797Z,51.05
2022-11-05T22:58:08.634Z,51.11
2022-11-05T23:00:36.806Z,50.95
2022-11-05T23:03:04.010Z,51.12
2022-11-05T23:05:31.017Z,50.75
2022-11-05T23:08:16.821Z,50.88
2022-11-05T23:11:02.487Z,50.73
2022-11-05T23:13:29.392Z,50.92
2022-11-05T23:16:15.086Z,51.02
2022-11-05T23:19:00.935Z,50.72
2022-11-05T23:21:46.544Z,50.81
2022-11-05T23:24:13.505Z,50.75
2022-11-05T23:26:52.728Z,51.07
2022-11-05T23:29:26.023Z,50.68
2022-11-05T23:32:11.717Z,50.99
2022-11-05T23:34:38.849Z,51.04
2022-11-05T23:37:24.359Z,50.86
2022-11-05T23:39:51.406Z,50.71
2022-11-05T23:42:36.721Z,50.82
2022-11-05T23:45:23.110Z,51.06
2022-11-05T23:48:08.576Z,50.94
2022-11-05T23:50:39.546Z,51.04
2022-11-05T23:53:07.212Z,50.93
2022-11-05T23:55:34.134Z,51.08
2022-11-05T23:58:01.015Z,50.74
